Time,TemperatureF,DewpointF,PressureIn,WindDirection,WindDirectionDegrees,WindSpeedMPH,WindSpeedGustMPH,Humidity,HourlyPrecipIn,Conditions,Clouds,dailyrainin,SoftwareType,DateUTC
2013-02-14 00:00:00,32.5,30.4,29.86,NNW,338,0.6,0.6,92,0.00,,---,0.06,VWS V14.00,2013-02-14 05:00:00,
2013-02-14 00:05:00,32.7,30.6,29.85,NNW,338,0.0,0.6,92,0.00,,---,0.00,VWS V14.00,2013-02-14 05:05:00,
2013-02-14 00:10:00,32.7,30.6,29.85,NNW,338,0.0,0.0,92,0.00,,---,0.00,VWS V14.00,2013-02-14 05:10:00,
2013-02-14 00:15:00,32.9,30.8,29.85,NNW,338,0.8,0.8,92,0.00,,---,0.00,VWS V14.00,2013-02-14 05:15:00,
2013-02-14 00:20:00,32.9,30.8,29.86,NNE,22,0.0,0.0,92,0.00,,---,0.00,VWS V14.00,2013-02-14 05:20:00,
2013-02-14 00:25:00,33.0,30.9,29.86,NNE,22,0.0,0.0,92,0.00,,---,0.00,VWS V14.00,2013-02-14 05:25:00,
2013-02-14 00:30:00,33.0,30.9,29.86,NNE,22,0.0,0.0,92,0.00,,---,0.00,VWS V14.00,2013-02-14 05:30:00,
2013-02-14 00:35:00,33.0,30.9,29.87,North,0,0.0,3.3,92,0.00,,---,0.00,VWS V14.00,2013-02-14 05:35:00,
2013-02-14 00:40:00,33.0,30.9,29.86,North,0,4.6,4.6,92,0.00,,---,0.00,VWS V14.00,2013-02-14 05:40:00,
2013-02-14 00:45:00,33.0,31.2,29.86,North,0,0.6,4.6,93,0.00,,---,0.00,VWS V14.00,2013-02-14 05:45:00,
2013-02-14 00:50:00,33.0,30.9,29.86,North,0,0.0,0.0,92,0.00,,---,0.00,VWS V14.00,2013-02-14 05:50:00,
2013-02-14 00:55:00,33.0,30.9,29.86,NE,45,6.2,6.2,92,0.00,,---,0.00,VWS V14.00,2013-02-14 05:55:00,
2013-02-14 01:00:00,33.0,31.2,29.87,NE,45,0.6,0.6,93,0.00,,---,0.00,VWS V14.00,2013-02-14 06:00:00,
2013-02-14 01:06:00,32.9,31.1,29.87,NE,45,2.6,2.6,93,0.00,,---,0.00,VWS V14.00,2013-02-14 06:06:00,
2013-02-14 01:11:00,33.0,31.2,29.87,NE,45,0.0,0.0,93,0.00,,---,0.00,VWS V14.00,2013-02-14 06:11:00,
2013-02-14 01:16:00,33.0,31.2,29.87,NNE,22,0.6,2.0,93,0.00,,---,0.00,VWS V14.00,2013-02-14 06:16:00,
2013-02-14 01:21:00,33.0,31.2,29.87,North,0,2.0,2.0,93,0.00,,---,0.00,VWS V14.00,2013-02-14 06:21:00,
2013-02-14 01:26:00,33.0,31.2,29.87,North,0,0.0,2.0,93,0.00,,---,0.00,VWS V14.00,2013-02-14 06:26:00,
2013-02-14 01:31:00,33.0,31.2,29.87,North,0,1.3,1.3,93,0.00,,---,0.00,VWS V14.00,2013-02-14 06:31:00,
2013-02-14 01:36:00,32.9,31.1,29.88,North,0,0.0,1.3,93,0.00,,---,0.00,VWS V14.00,2013-02-14 06:36:00,
2013-02-14 01:41:00,32.9,31.1,29.87,North,0,0.0,0.0,93,0.00,,---,0.00,VWS V14.00,2013-02-14 06:41:00,
2013-02-14 01:46:00,33.0,31.5,29.87,NE,45,1.7,3.8,94,0.00,,---,0.00,VWS V14.00,2013-02-14 06:46:00,
2013-02-14 01:51:00,33.0,31.2,29.87,NE,45,0.4,0.4,93,0.00,,---,0.00,VWS V14.00,2013-02-14 06:51:00,
2013-02-14 01:56:00,33.0,31.2,29.87,WNW,292,2.2,2.2,93,0.00,,---,0.00,VWS V14.00,2013-02-14 06:56:00,
2013-02-14 02:01:00,32.9,31.1,29.87,WNW,292,0.0,0.0,93,0.00,,---,0.00,VWS V14.00,2013-02-14 07:01:00,
2013-02-14 02:06:00,32.7,30.9,29.88,WNW,292,0.0,1.1,93,0.00,,---,0.00,VWS V14.00,2013-02-14 07:06:00,
2013-02-14 02:11:00,32.5,30.7,29.88,WNW,292,0.0,0.0,93,0.00,,---,0.00,VWS V14.00,2013-02-14 07:11:00,
2013-02-14 02:16:00,32.5,30.7,29.88,WNW,292,2.2,2.2,93,0.00,,---,0.00,VWS V14.00,2013-02-14 07:16:00,
2013-02-14 02:21:00,32.5,30.7,29.87,WNW,292,0.0,0.0,93,0.00,,---,0.00,VWS V14.00,2013-02-14 07:21:00,
2013-02-14 02:26:00,32.3,30.5,29.88,WNW,292,1.1,1.1,93,0.00,,---,0.00,VWS V14.00,2013-02-14 07:26:00,
2013-02-14 02:31:00,32.3,30.5,29.87,NW,315,0.0,0.0,93,0.00,,---,0.00,VWS V14.00,2013-02-14 07:31:00,
2013-02-14 02:36:00,32.1,30.3,29.87,NW,315,0.4,1.7,93,0.00,,---,0.00,VWS V14.00,2013-02-14 07:36:00,
2013-02-14 02:41:00,32.1,30.3,29.88,WNW,292,1.5,1.5,93,0.00,,---,0.00,VWS V14.00,2013-02-14 07:41:00,
2013-02-14 02:46:00,32.1,30.3,29.88,WNW,292,1.5,1.5,93,0.00,,---,0.00,VWS V14.00,2013-02-14 07:46:00,
2013-02-14 02:51:00,32.1,30.3,29.87,WNW,292,0.0,0.0,93,0.00,,---,0.00,VWS V14.00,2013-02-14 07:51:00,
2013-02-14 02:56:00,32.1,30.3,29.87,WNW,292,3.3,3.3,93,0.00,,---,0.00,VWS V14.00,2013-02-14 07:56:00,
2013-02-14 03:01:00,32.1,30.3,29.87,WNW,292,5.5,5.5,93,0.00,,---,0.00,VWS V14.00,2013-02-14 08:01:00,
2013-02-14 03:06:00,32.1,30.3,29.88,WNW,292,0.4,5.5,93,0.00,,---,0.00,VWS V14.00,2013-02-14 08:06:00,
2013-02-14 03:11:00,32.1,30.3,29.87,WNW,292,2.0,2.0,93,0.00,,---,0.00,VWS V14.00,2013-02-14 08:11:00,
2013-02-14 03:16:00,32.1,30.3,29.87,WNW,292,1.3,2.0,93,0.00,,---,0.00,VWS V14.00,2013-02-14 08:16:00,
2013-02-14 03:21:00,31.8,30.0,29.87,WNW,292,1.1,1.1,93,0.00,,---,0.00,VWS V14.00,2013-02-14 08:21:00,
2013-02-14 03:26:00,31.8,30.0,29.87,WNW,292,0.0,2.9,93,0.00,,---,0.00,VWS V14.00,2013-02-14 08:26:00,
2013-02-14 03:31:00,31.6,29.8,29.87,WNW,292,0.0,0.0,93,0.00,,---,0.00,VWS V14.00,2013-02-14 08:31:00,
2013-02-14 03:36:00,31.6,29.8,29.88,WNW,292,0.0,0.0,93,0.00,,---,0.00,VWS V14.00,2013-02-14 08:36:00,
2013-02-14 03:41:00,31.2,29.4,29.88,WNW,292,0.0,0.0,93,0.00,,---,0.00,VWS V14.00,2013-02-14 08:41:00,
2013-02-14 03:46:00,31.2,29.4,29.88,WNW,292,0.0,1.1,93,0.00,,---,0.00,VWS V14.00,2013-02-14 08:46:00,
2013-02-14 03:51:00,31.2,29.4,29.89,WNW,292,0.0,0.0,93,0.00,,---,0.00,VWS V14.00,2013-02-14 08:51:00,
2013-02-14 03:56:00,31.2,29.4,29.89,WNW,292,0.0,1.3,93,0.00,,---,0.00,VWS V14.00,2013-02-14 08:56:00,
2013-02-14 04:01:00,31.2,29.4,29.89,WNW,292,0.0,0.0,93,0.00,,---,0.00,VWS V14.00,2013-02-14 09:01:00,
2013-02-14 04:06:00,31.2,29.4,29.89,WNW,292,2.2,2.2,93,0.00,,---,0.00,VWS V14.00,2013-02-14 09:06:00,
2013-02-14 04:11:00,31.2,29.4,29.89,WNW,292,2.6,2.6,93,0.00,,---,0.00,VWS V14.00,2013-02-14 09:11:00,
2013-02-14 04:16:00,31.6,29.8,29.89,WNW,292,1.5,2.6,93,0.00,,---,0.00,VWS V14.00,2013-02-14 09:16:00,
2013-02-14 04:21:00,31.6,29.8,29.89,WNW,292,3.5,3.5,93,0.00,,---,0.00,VWS V14.00,2013-02-14 09:21:00,
2013-02-14 04:26:00,31.6,29.8,29.90,WNW,292,0.0,3.5,93,0.00,,---,0.00,VWS V14.00,2013-02-14 09:26:00,
2013-02-14 04:31:00,31.6,29.8,29.90,WNW,292,0.0,0.0,93,0.00,,---,0.00,VWS V14.00,2013-02-14 09:31:00,
2013-02-14 04:36:00,31.4,29.6,29.90,WNW,292,0.0,0.0,93,0.00,,---,0.00,VWS V14.00,2013-02-14 09:36:00,
2013-02-14 04:41:00,31.1,29.3,29.90,WNW,292,0.0,0.0,93,0.00,,---,0.00,VWS V14.00,2013-02-14 09:41:00,
2013-02-14 04:46:00,30.7,28.9,29.90,WNW,292,0.0,0.0,93,0.00,,---,0.00,VWS V14.00,2013-02-14 09:46:00,
2013-02-14 04:51:00,30.5,28.7,29.90,WNW,292,0.0,0.0,93,0.00,,---,0.00,VWS V14.00,2013-02-14 09:51:00,
2013-02-14 04:56:00,30.3,28.5,29.90,WNW,292,0.0,0.0,93,0.00,,---,0.00,VWS V14.00,2013-02-14 09:56:00,
2013-02-14 05:01:00,30.3,28.5,29.90,WNW,292,0.0,0.0,93,0.00,,---,0.00,VWS V14.00,2013-02-14 10:01:00,
2013-02-14 05:06:00,30.2,28.7,29.91,WNW,292,0.0,0.8,94,0.00,,---,0.00,VWS V14.00,2013-02-14 10:06:00,
2013-02-14 05:11:00,30.2,28.7,29.91,WNW,292,0.0,0.0,94,0.00,,---,0.00,VWS V14.00,2013-02-14 10:11:00,
2013-02-14 05:16:00,30.0,28.5,29.91,WNW,292,0.0,0.8,94,0.00,,---,0.00,VWS V14.00,2013-02-14 10:16:00,
2013-02-14 05:21:00,30.0,28.5,29.91,WNW,292,0.0,0.0,94,0.00,,---,0.00,VWS V14.00,2013-02-14 10:21:00,
2013-02-14 05:26:00,30.0,28.5,29.91,WNW,292,1.7,1.7,94,0.00,,---,0.00,VWS V14.00,2013-02-14 10:26:00,
2013-02-14 05:31:00,30.0,28.5,29.91,WNW,292,0.0,0.0,94,0.00,,---,0.00,VWS V14.00,2013-02-14 10:31:00,
2013-02-14 05:36:00,30.0,28.5,29.91,WNW,292,0.0,0.0,94,0.00,,---,0.00,VWS V14.00,2013-02-14 10:36:00,
2013-02-14 05:41:00,29.8,28.3,29.91,WNW,292,0.0,0.0,94,0.00,,---,0.00,VWS V14.00,2013-02-14 10:41:00,
2013-02-14 05:46:00,29.4,27.9,29.91,WNW,292,0.0,0.0,94,0.00,,---,0.00,VWS V14.00,2013-02-14 10:46:00,
2013-02-14 05:51:00,29.3,27.8,29.91,WNW,292,0.0,0.0,94,0.00,,---,0.00,VWS V14.00,2013-02-14 10:51:00,
2013-02-14 05:56:00,29.1,27.6,29.91,WNW,292,0.0,0.0,94,0.00,,---,0.00,VWS V14.00,2013-02-14 10:56:00,
2013-02-14 06:01:00,28.7,27.2,29.92,WNW,292,0.0,0.0,94,0.00,,---,0.00,VWS V14.00,2013-02-14 11:01:00,
2013-02-14 06:06:00,28.7,27.2,29.92,WNW,292,0.0,0.0,94,0.00,,---,0.00,VWS V14.00,2013-02-14 11:06:00,
2013-02-14 06:11:00,28.5,27.0,29.92,WNW,292,0.0,0.0,94,0.00,,---,0.00,VWS V14.00,2013-02-14 11:11:00,
2013-02-14 06:16:00,28.2,26.7,29.92,WNW,292,0.0,0.0,94,0.00,,---,0.00,VWS V14.00,2013-02-14 11:16:00,
2013-02-14 06:21:00,28.2,26.7,29.92,WNW,292,0.0,0.0,94,0.00,,---,0.00,VWS V14.00,2013-02-14 11:21:00,
2013-02-14 06:26:00,28.2,26.7,29.92,WNW,292,0.0,0.0,94,0.00,,---,0.00,VWS V14.00,2013-02-14 11:26:00,
2013-02-14 06:31:00,28.0,26.8,29.92,WNW,292,0.0,0.0,95,0.00,,---,0.00,VWS V14.00,2013-02-14 11:31:00,
2013-02-14 06:36:00,28.0,26.8,29.92,WNW,292,0.0,0.0,95,0.00,,---,0.00,VWS V14.00,2013-02-14 11:36:00,
2013-02-14 06:41:00,28.0,26.8,29.93,WNW,292,0.0,0.0,95,0.00,,---,0.00,VWS V14.00,2013-02-14 11:41:00,
2013-02-14 06:46:00,28.0,26.8,29.93,WNW,292,0.0,0.0,95,0.00,,---,0.00,VWS V14.00,2013-02-14 11:46:00,
2013-02-14 06:51:00,27.8,26.6,29.93,WNW,292,0.0,0.0,95,0.00,,---,0.00,VWS V14.00,2013-02-14 11:51:00,
2013-02-14 06:56:00,27.6,26.4,29.94,WNW,292,0.0,0.0,95,0.00,,---,0.00,VWS V14.00,2013-02-14 11:56:00,
2013-02-14 07:01:00,27.8,26.6,29.94,WNW,292,0.0,0.0,95,0.00,,---,0.00,VWS V14.00,2013-02-14 12:01:00,
2013-02-14 07:06:00,27.6,26.4,29.94,WNW,292,0.0,0.0,95,0.00,,---,0.00,VWS V14.00,2013-02-14 12:06:00,
2013-02-14 07:11:00,27.6,26.4,29.94,WNW,292,0.0,0.0,95,0.00,,---,0.00,VWS V14.00,2013-02-14 12:11:00,
2013-02-14 07:16:00,27.6,26.4,29.94,WNW,292,0.0,0.0,95,0.00,,---,0.00,VWS V14.00,2013-02-14 12:16:00,
2013-02-14 07:21:00,27.5,26.3,29.94,WNW,292,0.0,0.0,95,0.00,,---,0.00,VWS V14.00,2013-02-14 12:21:00,
2013-02-14 07:26:00,27.5,26.5,29.94,WNW,292,0.0,0.0,96,0.00,,---,0.00,VWS V14.00,2013-02-14 12:26:00,
2013-02-14 07:32:00,27.6,26.6,29.95,WNW,292,0.0,0.0,96,0.00,,---,0.00,VWS V14.00,2013-02-14 12:32:00,
2013-02-14 07:37:00,28.0,27.0,29.95,WNW,292,0.0,0.0,96,0.00,,---,0.00,VWS V14.00,2013-02-14 12:37:00,
2013-02-14 07:42:00,28.2,27.2,29.96,WNW,292,0.0,0.0,96,0.00,,---,0.00,VWS V14.00,2013-02-14 12:42:00,
2013-02-14 07:47:00,28.2,27.2,29.97,WNW,292,0.0,0.0,96,0.00,,---,0.00,VWS V14.00,2013-02-14 12:47:00,
2013-02-14 07:52:00,28.2,27.2,29.97,WNW,292,0.0,0.0,96,0.00,,---,0.00,VWS V14.00,2013-02-14 12:52:00,
2013-02-14 07:57:00,28.2,27.2,29.97,WNW,292,0.0,0.0,96,0.00,,---,0.00,VWS V14.00,2013-02-14 12:57:00,
2013-02-14 08:02:00,28.5,27.5,29.97,WSW,248,1.1,1.1,96,0.00,,---,0.00,VWS V14.00,2013-02-14 13:02:00,
2013-02-14 08:07:00,28.5,27.5,29.97,WSW,248,1.3,1.3,96,0.00,,---,0.00,VWS V14.00,2013-02-14 13:07:00,
2013-02-14 08:12:00,28.7,27.7,29.97,WSW,248,0.0,0.0,96,0.00,,---,0.00,VWS V14.00,2013-02-14 13:12:00,
2013-02-14 08:17:00,29.1,28.1,29.97,WSW,248,0.0,1.5,96,0.00,,---,0.00,VWS V14.00,2013-02-14 13:17:00,
2013-02-14 08:22:00,29.6,28.6,29.97,WSW,248,0.0,0.0,96,0.00,,---,0.00,VWS V14.00,2013-02-14 13:22:00,
2013-02-14 08:27:00,30.0,29.0,29.98,WSW,248,0.0,0.0,96,0.00,,---,0.00,VWS V14.00,2013-02-14 13:27:00,
2013-02-14 08:32:00,30.3,29.3,29.99,WSW,248,0.0,0.0,96,0.00,,---,0.00,VWS V14.00,2013-02-14 13:32:00,
2013-02-14 08:37:00,30.7,29.7,29.99,WSW,248,0.0,0.0,96,0.00,,---,0.00,VWS V14.00,2013-02-14 13:37:00,
2013-02-14 08:42:00,30.9,29.9,29.99,WSW,248,1.7,1.7,96,0.00,,---,0.00,VWS V14.00,2013-02-14 13:42:00,
2013-02-14 08:47:00,31.2,30.2,29.98,WSW,248,0.0,1.7,96,0.00,,---,0.00,VWS V14.00,2013-02-14 13:47:00,
2013-02-14 08:52:00,31.6,30.6,29.99,WSW,248,0.0,0.0,96,0.00,,---,0.00,VWS V14.00,2013-02-14 13:52:00,
2013-02-14 08:57:00,31.8,30.8,29.99,WSW,248,1.1,1.1,96,0.00,,---,0.00,VWS V14.00,2013-02-14 13:57:00,
2013-02-14 09:02:00,32.5,31.2,30.00,WSW,248,0.0,0.0,95,0.00,,---,0.00,VWS V14.00,2013-02-14 14:02:00,
2013-02-14 09:07:00,32.7,31.4,30.00,West,270,0.0,0.0,95,0.00,,---,0.00,VWS V14.00,2013-02-14 14:07:00,
2013-02-14 09:12:00,32.9,31.6,30.00,West,270,0.0,0.0,95,0.00,,---,0.00,VWS V14.00,2013-02-14 14:12:00,
2013-02-14 09:17:00,33.6,32.1,30.00,West,270,2.0,2.0,94,0.00,,---,0.00,VWS V14.00,2013-02-14 14:17:00,
2013-02-14 09:22:00,33.8,32.3,29.99,West,270,0.0,0.0,94,0.00,,---,0.00,VWS V14.00,2013-02-14 14:22:00,
2013-02-14 09:27:00,34.3,32.5,29.99,West,270,0.0,0.0,93,0.00,,---,0.00,VWS V14.00,2013-02-14 14:27:00,
2013-02-14 09:32:00,35.4,33.6,29.99,WSW,248,2.9,2.9,93,0.00,,---,0.00,VWS V14.00,2013-02-14 14:32:00,
2013-02-14 09:37:00,36.3,34.2,30.00,West,270,0.0,2.9,92,0.00,,---,0.00,VWS V14.00,2013-02-14 14:37:00,
2013-02-14 09:42:00,36.8,34.2,29.99,West,270,0.0,0.0,90,0.00,,---,0.00,VWS V14.00,2013-02-14 14:42:00,
2013-02-14 09:47:00,37.7,34.8,29.99,ENE,68,2.9,2.9,89,0.00,,---,0.00,VWS V14.00,2013-02-14 14:47:00,
2013-02-14 09:52:00,38.4,35.2,29.98,WNW,292,4.2,4.2,88,0.00,,---,0.00,VWS V14.00,2013-02-14 14:52:00,
2013-02-14 09:57:00,39.0,35.5,29.98,West,270,0.0,4.6,87,0.00,,---,0.00,VWS V14.00,2013-02-14 14:57:00,
2013-02-14 10:02:00,39.3,35.8,29.98,West,270,2.2,2.4,87,0.00,,---,0.00,VWS V14.00,2013-02-14 15:02:00,
2013-02-14 10:07:00,39.9,35.8,29.99,West,270,1.7,2.4,85,0.00,,---,0.00,VWS V14.00,2013-02-14 15:07:00,
2013-02-14 10:12:00,40.2,36.1,29.99,West,270,2.6,2.6,85,0.00,,---,0.00,VWS V14.00,2013-02-14 15:12:00,
2013-02-14 10:17:00,40.6,35.8,29.98,NNW,338,3.5,3.5,83,0.00,,---,0.00,VWS V14.00,2013-02-14 15:17:00,
2013-02-14 10:22:00,41.0,36.2,29.98,West,270,0.0,0.0,83,0.00,,---,0.00,VWS V14.00,2013-02-14 15:22:00,
2013-02-14 10:27:00,41.3,36.2,29.98,WNW,292,1.3,1.3,82,0.00,,---,0.00,VWS V14.00,2013-02-14 15:27:00,
2013-02-14 10:32:00,41.9,36.8,29.97,WNW,292,0.0,0.0,82,0.00,,---,0.00,VWS V14.00,2013-02-14 15:32:00,
2013-02-14 10:37:00,42.0,36.6,29.97,NNW,338,1.3,1.7,81,0.00,,---,0.00,VWS V14.00,2013-02-14 15:37:00,
2013-02-14 10:42:00,42.4,36.7,29.96,WNW,292,1.3,2.9,80,0.00,,---,0.00,VWS V14.00,2013-02-14 15:42:00,
2013-02-14 10:47:00,42.8,37.1,29.97,NNW,338,0.0,2.9,80,0.00,,---,0.00,VWS V14.00,2013-02-14 15:47:00,
2013-02-14 10:52:00,42.9,36.8,29.97,WNW,292,0.0,0.0,79,0.00,,---,0.00,VWS V14.00,2013-02-14 15:52:00,
2013-02-14 10:57:00,43.3,37.2,29.98,WNW,292,0.0,0.0,79,0.00,,---,0.00,VWS V14.00,2013-02-14 15:57:00,
2013-02-14 11:02:00,43.7,37.3,29.98,WNW,292,0.6,0.6,78,0.00,,---,0.00,VWS V14.00,2013-02-14 16:02:00,
2013-02-14 11:07:00,44.2,37.5,29.98,SSW,202,0.6,0.6,77,0.00,,---,0.00,VWS V14.00,2013-02-14 16:07:00,
2013-02-14 11:12:00,44.4,37.7,29.98,South,180,0.0,0.0,77,0.00,,---,0.00,VWS V14.00,2013-02-14 16:12:00,
2013-02-14 11:17:00,44.9,38.1,29.99,SSW,202,0.0,0.0,77,0.00,,---,0.00,VWS V14.00,2013-02-14 16:17:00,
2013-02-14 11:22:00,45.1,37.7,29.98,West,270,0.6,0.6,75,0.00,,---,0.00,VWS V14.00,2013-02-14 16:22:00,
2013-02-14 11:27:00,45.3,21.8,29.98,SSW,202,1.5,1.5,39,0.00,,---,0.00,VWS V14.00,2013-02-14 16:27:00,
2013-02-14 11:32:00,45.6,38.2,29.98,WSW,248,3.3,3.3,75,0.00,,---,0.00,VWS V14.00,2013-02-14 16:32:00,
2013-02-14 11:37:00,46.2,39.1,29.97,SE,135,0.8,3.3,76,0.00,,---,0.00,VWS V14.00,2013-02-14 16:37:00,
2013-02-14 11:42:00,46.5,39.0,29.97,South,180,4.0,4.0,75,0.00,,---,0.00,VWS V14.00,2013-02-14 16:42:00,
2013-02-14 11:47:00,47.1,39.6,29.97,SSE,158,0.0,4.0,75,0.00,,---,0.00,VWS V14.00,2013-02-14 16:47:00,
2013-02-14 11:52:00,47.3,38.7,29.97,East,90,0.0,1.5,72,0.00,,---,0.00,VWS V14.00,2013-02-14 16:52:00,
2013-02-14 11:57:00,47.4,39.2,29.97,SSE,158,1.7,1.7,73,0.00,,---,0.00,VWS V14.00,2013-02-14 16:57:00,
2013-02-14 12:02:00,47.8,39.2,29.97,SSE,158,3.3,3.8,72,0.00,,---,0.00,VWS V14.00,2013-02-14 17:02:00,
2013-02-14 12:07:00,48.2,39.6,29.97,South,180,0.0,3.8,72,0.00,,---,0.00,VWS V14.00,2013-02-14 17:07:00,
2013-02-14 12:13:00,48.7,40.1,29.98,East,90,0.0,0.6,72,0.00,,---,0.00,VWS V14.00,2013-02-14 17:13:00,
2013-02-14 12:18:00,49.1,40.1,29.97,NNE,22,4.6,4.6,71,0.00,,---,0.00,VWS V14.00,2013-02-14 17:18:00,
2013-02-14 12:23:00,49.1,39.4,29.97,NNW,338,0.0,0.0,69,0.00,,---,0.00,VWS V14.00,2013-02-14 17:23:00,
2013-02-14 12:28:00,49.2,39.1,29.96,NNE,22,0.0,0.0,68,0.00,,---,0.00,VWS V14.00,2013-02-14 17:28:00,
2013-02-14 12:33:00,49.2,38.7,29.96,NE,45,0.0,0.0,67,0.00,,---,0.00,VWS V14.00,2013-02-14 17:33:00,
2013-02-14 12:38:00,50.1,39.2,29.96,NE,45,0.0,1.5,66,0.00,,---,0.00,VWS V14.00,2013-02-14 17:38:00,
2013-02-14 12:43:00,50.1,39.2,29.95,ENE,68,0.4,2.0,66,0.00,,---,0.00,VWS V14.00,2013-02-14 17:43:00,
2013-02-14 12:48:00,50.5,39.6,29.95,ENE,68,0.8,2.0,66,0.00,,---,0.00,VWS V14.00,2013-02-14 17:48:00,
2013-02-14 12:53:00,51.0,40.1,29.95,NW,315,0.0,2.0,66,0.00,,---,0.00,VWS V14.00,2013-02-14 17:53:00,
2013-02-14 12:58:00,51.2,39.8,29.95,NE,45,0.0,2.0,65,0.00,,---,0.00,VWS V14.00,2013-02-14 17:58:00,
2013-02-14 13:03:00,51.6,40.2,29.95,NNW,338,0.0,2.4,65,0.00,,---,0.00,VWS V14.00,2013-02-14 18:03:00,
2013-02-14 13:08:00,52.3,40.9,29.94,NNW,338,0.4,2.4,65,0.00,,---,0.00,VWS V14.00,2013-02-14 18:08:00,
2013-02-14 13:13:00,52.5,40.7,29.94,NNW,338,0.8,0.8,64,0.00,,---,0.00,VWS V14.00,2013-02-14 18:13:00,
2013-02-14 13:18:00,52.5,40.7,29.93,NW,315,0.0,2.4,64,0.00,,---,0.00,VWS V14.00,2013-02-14 18:18:00,
2013-02-14 13:23:00,52.7,40.1,29.93,WNW,292,0.8,1.3,62,0.00,,---,0.00,VWS V14.00,2013-02-14 18:23:00,
2013-02-14 13:28:00,52.8,40.2,29.92,NW,315,1.3,3.8,62,0.00,,---,0.00,VWS V14.00,2013-02-14 18:28:00,
2013-02-14 13:33:00,52.8,40.2,29.92,West,270,0.0,0.0,62,0.00,,---,0.00,VWS V14.00,2013-02-14 18:33:00,
2013-02-14 13:38:00,53.2,40.1,29.92,NW,315,0.0,3.5,61,0.00,,---,0.00,VWS V14.00,2013-02-14 18:38:00,
2013-02-14 13:43:00,53.2,40.1,29.92,ESE,112,2.4,2.9,61,0.00,,---,0.00,VWS V14.00,2013-02-14 18:43:00,
2013-02-14 13:48:00,53.4,39.9,29.92,WNW,292,0.0,2.9,60,0.00,,---,0.00,VWS V14.00,2013-02-14 18:48:00,
2013-02-14 13:53:00,53.4,39.0,29.91,ENE,68,0.8,2.9,58,0.00,,---,0.00,VWS V14.00,2013-02-14 18:53:00,
2013-02-14 13:58:00,53.4,39.0,29.91,WNW,292,1.5,2.9,58,0.00,,---,0.00,VWS V14.00,2013-02-14 18:58:00,
2013-02-14 14:03:00,53.4,39.0,29.91,NW,315,1.3,1.3,58,0.00,,---,0.00,VWS V14.00,2013-02-14 19:03:00,
2013-02-14 14:08:00,53.4,39.5,29.91,SSE,158,2.9,2.9,59,0.00,,---,0.00,VWS V14.00,2013-02-14 19:08:00,
2013-02-14 14:13:00,53.2,40.1,29.92,SSW,202,0.6,1.7,61,0.00,,---,0.00,VWS V14.00,2013-02-14 19:13:00,
2013-02-14 14:18:00,53.2,40.5,29.92,SSE,158,0.0,5.8,62,0.00,,---,0.00,VWS V14.00,2013-02-14 19:18:00,
2013-02-14 14:23:00,52.8,41.0,29.92,East,90,4.2,4.2,64,0.00,,---,0.00,VWS V14.00,2013-02-14 19:23:00,
2013-02-14 14:28:00,52.5,40.7,29.92,SSE,158,8.2,8.2,64,0.00,,---,0.00,VWS V14.00,2013-02-14 19:28:00,
2013-02-14 14:33:00,52.1,40.3,29.92,SE,135,0.8,1.1,64,0.00,,---,0.00,VWS V14.00,2013-02-14 19:33:00,
2013-02-14 14:38:00,51.9,40.5,29.92,NW,315,0.0,3.1,65,0.00,,---,0.00,VWS V14.00,2013-02-14 19:38:00,
2013-02-14 14:43:00,52.1,40.7,29.92,West,270,4.0,5.5,65,0.00,,---,0.00,VWS V14.00,2013-02-14 19:43:00,
2013-02-14 14:48:00,52.1,40.7,29.93,SSE,158,5.3,5.5,65,0.00,,---,0.00,VWS V14.00,2013-02-14 19:48:00,
2013-02-14 14:53:00,51.9,40.5,29.92,SSE,158,0.0,0.0,65,0.00,,---,0.00,VWS V14.00,2013-02-14 19:53:00,
2013-02-14 14:58:00,51.9,40.5,29.92,ENE,68,1.3,1.3,65,0.00,,---,0.00,VWS V14.00,2013-02-14 19:58:00,
2013-02-14 15:03:00,51.6,40.2,29.92,South,180,0.0,0.2,65,0.00,,---,0.00,VWS V14.00,2013-02-14 20:03:00,
2013-02-14 15:08:00,51.8,40.4,29.92,SSE,158,0.0,0.2,65,0.00,,---,0.00,VWS V14.00,2013-02-14 20:08:00,
2013-02-14 15:13:00,51.6,40.2,29.92,South,180,0.0,1.1,65,0.00,,---,0.00,VWS V14.00,2013-02-14 20:13:00,
2013-02-14 15:18:00,51.8,40.8,29.92,SW,225,4.6,4.6,66,0.00,,---,0.00,VWS V14.00,2013-02-14 20:18:00,
2013-02-14 15:23:00,51.9,40.9,29.92,WSW,248,0.0,6.0,66,0.00,,---,0.00,VWS V14.00,2013-02-14 20:23:00,
2013-02-14 15:28:00,52.3,40.9,29.93,South,180,0.0,6.0,65,0.00,,---,0.00,VWS V14.00,2013-02-14 20:28:00,
2013-02-14 15:33:00,52.5,40.7,29.93,East,90,4.0,4.0,64,0.00,,---,0.00,VWS V14.00,2013-02-14 20:33:00,
2013-02-14 15:38:00,52.5,41.1,29.92,SSW,202,2.0,4.0,65,0.00,,---,0.00,VWS V14.00,2013-02-14 20:38:00,
2013-02-14 15:44:00,52.3,40.5,29.92,East,90,0.0,4.2,64,0.00,,---,0.00,VWS V14.00,2013-02-14 20:44:00,
2013-02-14 15:49:00,52.3,40.5,29.92,SSE,158,0.0,4.2,64,0.00,,---,0.00,VWS V14.00,2013-02-14 20:49:00,
2013-02-14 15:54:00,52.3,40.5,29.92,SSE,158,0.0,2.4,64,0.00,,---,0.00,VWS V14.00,2013-02-14 20:54:00,
2013-02-14 15:59:00,52.3,40.9,29.91,ENE,68,2.4,2.4,65,0.00,,---,0.00,VWS V14.00,2013-02-14 20:59:00,
2013-02-14 16:04:00,52.3,40.9,29.92,SSW,202,0.0,3.5,65,0.00,,---,0.00,VWS V14.00,2013-02-14 21:04:00,
2013-02-14 16:09:00,52.5,41.1,29.92,SSW,202,0.0,3.5,65,0.00,,---,0.00,VWS V14.00,2013-02-14 21:09:00,
2013-02-14 16:14:00,52.5,41.1,29.92,ENE,68,0.0,0.0,65,0.00,,---,0.00,VWS V14.00,2013-02-14 21:14:00,
2013-02-14 16:19:00,52.3,40.9,29.92,SSW,202,0.0,0.4,65,0.00,,---,0.00,VWS V14.00,2013-02-14 21:19:00,
2013-02-14 16:24:00,52.3,41.3,29.92,South,180,0.0,0.0,66,0.00,,---,0.00,VWS V14.00,2013-02-14 21:24:00,
2013-02-14 16:29:00,52.3,41.3,29.92,SSE,158,0.0,1.7,66,0.00,,---,0.00,VWS V14.00,2013-02-14 21:29:00,
2013-02-14 16:34:00,51.9,40.9,29.92,SSE,158,0.0,0.0,66,0.00,,---,0.00,VWS V14.00,2013-02-14 21:34:00,
2013-02-14 16:39:00,51.9,40.9,29.92,SSE,158,4.9,4.9,66,0.00,,---,0.00,VWS V14.00,2013-02-14 21:39:00,
2013-02-14 16:44:00,51.6,40.6,29.92,SSE,158,0.0,0.8,66,0.00,,---,0.00,VWS V14.00,2013-02-14 21:44:00,
2013-02-14 16:49:00,51.4,40.4,29.92,SSW,202,0.0,0.8,66,0.00,,---,0.00,VWS V14.00,2013-02-14 21:49:00,
2013-02-14 16:54:00,51.2,40.2,29.92,SE,135,0.0,0.0,66,0.00,,---,0.00,VWS V14.00,2013-02-14 21:54:00,
2013-02-14 16:59:00,51.0,40.1,29.92,SW,225,1.7,1.7,66,0.00,,---,0.00,VWS V14.00,2013-02-14 21:59:00,
2013-02-14 17:04:00,50.9,40.3,29.92,WSW,248,0.0,5.1,67,0.00,,---,0.00,VWS V14.00,2013-02-14 22:04:00,
2013-02-14 17:09:00,50.7,40.2,29.92,South,180,0.0,5.1,67,0.00,,---,0.00,VWS V14.00,2013-02-14 22:09:00,
2013-02-14 17:14:00,50.1,39.6,29.92,South,180,0.0,0.0,67,0.00,,---,0.00,VWS V14.00,2013-02-14 22:14:00,
2013-02-14 17:19:00,49.8,39.3,29.92,SE,135,0.0,0.0,67,0.00,,---,0.00,VWS V14.00,2013-02-14 22:19:00,
2013-02-14 17:24:00,49.6,39.1,29.92,SE,135,0.0,0.0,67,0.00,,---,0.00,VWS V14.00,2013-02-14 22:24:00,
2013-02-14 17:29:00,49.1,39.0,29.92,SE,135,0.0,0.0,68,0.00,,---,0.00,VWS V14.00,2013-02-14 22:29:00,
2013-02-14 17:34:00,48.7,38.6,29.92,SE,135,0.0,0.0,68,0.00,,---,0.00,VWS V14.00,2013-02-14 22:34:00,
2013-02-14 17:39:00,48.2,38.5,29.92,SE,135,0.0,0.0,69,0.00,,---,0.00,VWS V14.00,2013-02-14 22:39:00,
2013-02-14 17:44:00,47.8,38.1,29.93,ESE,112,0.0,4.4,69,0.00,,---,0.00,VWS V14.00,2013-02-14 22:44:00,
2013-02-14 17:49:00,47.1,37.8,29.93,SE,135,0.0,4.4,70,0.00,,---,0.00,VWS V14.00,2013-02-14 22:49:00,
2013-02-14 17:54:00,46.9,37.6,29.93,SE,135,0.0,0.0,70,0.00,,---,0.00,VWS V14.00,2013-02-14 22:54:00,
2013-02-14 17:59:00,46.2,37.3,29.93,SE,135,0.0,0.0,71,0.00,,---,0.00,VWS V14.00,2013-02-14 22:59:00,
2013-02-14 18:04:00,45.6,37.1,29.94,SE,135,0.0,0.0,72,0.00,,---,0.00,VWS V14.00,2013-02-14 23:04:00,
2013-02-14 18:09:00,44.9,36.8,29.94,SE,135,0.0,0.0,73,0.00,,---,0.00,VWS V14.00,2013-02-14 23:09:00,
2013-02-14 18:14:00,44.4,36.3,29.94,SE,135,0.0,0.0,73,0.00,,---,0.00,VWS V14.00,2013-02-14 23:14:00,
2013-02-14 18:19:00,43.8,36.1,29.94,SE,135,0.0,0.0,74,0.00,,---,0.00,VWS V14.00,2013-02-14 23:19:00,
2013-02-14 18:24:00,42.9,35.5,29.94,SE,135,0.0,0.0,75,0.00,,---,0.00,VWS V14.00,2013-02-14 23:24:00,
2013-02-14 18:29:00,42.6,35.6,29.94,SE,135,0.0,0.0,76,0.00,,---,0.00,VWS V14.00,2013-02-14 23:29:00,
2013-02-14 18:34:00,42.0,35.3,29.94,SE,135,0.0,0.0,77,0.00,,---,0.00,VWS V14.00,2013-02-14 23:34:00,
2013-02-14 18:39:00,41.5,35.2,29.94,SE,135,0.0,0.0,78,0.00,,---,0.00,VWS V14.00,2013-02-14 23:39:00,
2013-02-14 18:44:00,41.0,34.7,29.94,SE,135,0.0,0.0,78,0.00,,---,0.00,VWS V14.00,2013-02-14 23:44:00,
2013-02-14 18:49:00,40.6,34.6,29.94,SE,135,0.0,0.0,79,0.00,,---,0.00,VWS V14.00,2013-02-14 23:49:00,
2013-02-14 18:54:00,40.1,34.4,29.94,SE,135,0.0,0.0,80,0.00,,---,0.00,VWS V14.00,2013-02-14 23:54:00,
2013-02-14 18:59:00,39.7,34.0,29.94,SE,135,0.0,0.0,80,0.00,,---,0.00,VWS V14.00,2013-02-14 23:59:00,
2013-02-14 19:04:00,39.5,33.8,29.95,SE,135,0.0,0.0,80,0.00,,---,0.00,VWS V14.00,2013-02-15 00:04:00,
2013-02-14 19:09:00,39.0,33.7,29.95,SE,135,0.0,0.0,81,0.00,,---,0.00,VWS V14.00,2013-02-15 00:09:00,
2013-02-14 19:14:00,38.8,33.8,29.95,SE,135,0.0,0.0,82,0.00,,---,0.00,VWS V14.00,2013-02-15 00:14:00,
2013-02-14 19:19:00,38.4,33.4,29.95,SE,135,0.0,0.0,82,0.00,,---,0.00,VWS V14.00,2013-02-15 00:19:00,
2013-02-14 19:24:00,37.9,32.9,29.94,SE,135,0.0,0.0,82,0.00,,---,0.00,VWS V14.00,2013-02-15 00:24:00,
2013-02-14 19:29:00,37.5,32.8,29.94,SE,135,0.0,0.0,83,0.00,,---,0.00,VWS V14.00,2013-02-15 00:29:00,
2013-02-14 19:34:00,37.2,32.5,29.95,SE,135,0.0,0.0,83,0.00,,---,0.00,VWS V14.00,2013-02-15 00:34:00,
2013-02-14 19:39:00,36.8,32.1,29.95,SE,135,0.0,0.0,83,0.00,,---,0.00,VWS V14.00,2013-02-15 00:39:00,
2013-02-14 19:45:00,36.5,32.1,29.96,SE,135,0.0,0.0,84,0.00,,---,0.00,VWS V14.00,2013-02-15 00:45:00,
2013-02-14 19:50:00,36.3,31.9,29.96,SE,135,0.0,0.0,84,0.00,,---,0.00,VWS V14.00,2013-02-15 00:50:00,
2013-02-14 19:55:00,35.9,31.8,29.96,SE,135,0.0,0.0,85,0.00,,---,0.00,VWS V14.00,2013-02-15 00:55:00,
2013-02-14 20:00:00,35.7,31.6,29.96,SE,135,0.0,0.0,85,0.00,,---,0.00,VWS V14.00,2013-02-15 01:00:00,
2013-02-14 20:05:00,35.4,31.6,29.96,SE,135,0.0,0.0,86,0.00,,---,0.00,VWS V14.00,2013-02-15 01:05:00,
2013-02-14 20:10:00,35.2,31.7,29.96,SE,135,0.0,0.0,87,0.00,,---,0.00,VWS V14.00,2013-02-15 01:10:00,
2013-02-14 20:15:00,34.8,31.3,29.96,SE,135,0.0,0.0,87,0.00,,---,0.00,VWS V14.00,2013-02-15 01:15:00,
2013-02-14 20:20:00,34.8,31.3,29.97,SE,135,0.0,0.0,87,0.00,,---,0.00,VWS V14.00,2013-02-15 01:20:00,
2013-02-14 20:25:00,34.5,31.0,29.96,SE,135,0.0,0.0,87,0.00,,---,0.00,VWS V14.00,2013-02-15 01:25:00,
2013-02-14 20:30:00,34.3,31.1,29.96,SE,135,0.0,0.0,88,0.00,,---,0.00,VWS V14.00,2013-02-15 01:30:00,
2013-02-14 20:35:00,34.3,31.1,29.96,SE,135,0.0,0.0,88,0.00,,---,0.00,VWS V14.00,2013-02-15 01:35:00,
2013-02-14 20:40:00,33.9,30.7,29.96,SE,135,0.0,0.0,88,0.00,,---,0.00,VWS V14.00,2013-02-15 01:40:00,
2013-02-14 20:45:00,33.8,30.6,29.96,SE,135,0.0,0.0,88,0.00,,---,0.00,VWS V14.00,2013-02-15 01:45:00,
2013-02-14 20:50:00,33.6,30.7,29.96,SE,135,0.0,0.0,89,0.00,,---,0.00,VWS V14.00,2013-02-15 01:50:00,
2013-02-14 20:55:00,33.4,30.5,29.96,SE,135,0.0,0.0,89,0.00,,---,0.00,VWS V14.00,2013-02-15 01:55:00,
2013-02-14 21:00:00,33.4,30.5,29.97,SE,135,0.0,0.0,89,0.00,,---,0.00,VWS V14.00,2013-02-15 02:00:00,
2013-02-14 21:05:00,33.0,30.1,29.97,SE,135,0.0,0.0,89,0.00,,---,0.00,VWS V14.00,2013-02-15 02:05:00,
2013-02-14 21:10:00,32.9,30.0,29.97,SE,135,0.0,0.0,89,0.00,,---,0.00,VWS V14.00,2013-02-15 02:10:00,
2013-02-14 21:15:00,32.7,29.8,29.98,SE,135,0.0,0.0,89,0.00,,---,0.00,VWS V14.00,2013-02-15 02:15:00,
2013-02-14 21:20:00,32.5,29.9,29.98,SE,135,0.0,0.0,90,0.00,,---,0.00,VWS V14.00,2013-02-15 02:20:00,
2013-02-14 21:25:00,32.3,29.7,29.99,SE,135,0.0,0.0,90,0.00,,---,0.00,VWS V14.00,2013-02-15 02:25:00,
2013-02-14 21:30:00,32.1,29.5,29.99,SE,135,0.0,0.0,90,0.00,,---,0.00,VWS V14.00,2013-02-15 02:30:00,
2013-02-14 21:35:00,32.0,29.4,29.98,SE,135,0.0,0.0,90,0.00,,---,0.00,VWS V14.00,2013-02-15 02:35:00,
2013-02-14 21:40:00,31.8,29.2,29.98,SE,135,0.0,0.0,90,0.00,,---,0.00,VWS V14.00,2013-02-15 02:40:00,
2013-02-14 21:45:00,31.6,29.0,29.98,SE,135,0.0,0.0,90,0.00,,---,0.00,VWS V14.00,2013-02-15 02:45:00,
2013-02-14 21:50:00,31.6,29.3,29.98,SE,135,0.0,0.0,91,0.00,,---,0.00,VWS V14.00,2013-02-15 02:50:00,
2013-02-14 21:55:00,31.4,29.1,29.99,SE,135,0.0,0.0,91,0.00,,---,0.00,VWS V14.00,2013-02-15 02:55:00,
2013-02-14 22:00:00,31.2,28.9,29.99,SE,135,0.0,0.0,91,0.00,,---,0.00,VWS V14.00,2013-02-15 03:00:00,
2013-02-14 22:05:00,31.1,28.8,29.99,SE,135,0.0,0.0,91,0.00,,---,0.00,VWS V14.00,2013-02-15 03:05:00,
2013-02-14 22:10:00,30.9,28.6,29.99,SE,135,0.0,0.0,91,0.00,,---,0.00,VWS V14.00,2013-02-15 03:10:00,
2013-02-14 22:15:00,30.7,28.4,29.99,SE,135,0.0,0.0,91,0.00,,---,0.00,VWS V14.00,2013-02-15 03:15:00,
2013-02-14 22:20:00,30.7,28.4,30.00,SE,135,0.0,0.0,91,0.00,,---,0.00,VWS V14.00,2013-02-15 03:20:00,
2013-02-14 22:25:00,30.7,28.7,29.99,SE,135,0.0,0.0,92,0.00,,---,0.00,VWS V14.00,2013-02-15 03:25:00,
2013-02-14 22:30:00,30.5,28.5,29.99,SE,135,0.0,0.0,92,0.00,,---,0.00,VWS V14.00,2013-02-15 03:30:00,
2013-02-14 22:35:00,30.3,28.3,30.00,SE,135,0.0,0.0,92,0.00,,---,0.00,VWS V14.00,2013-02-15 03:35:00,
2013-02-14 22:41:00,30.2,28.2,30.00,SE,135,0.0,0.0,92,0.00,,---,0.00,VWS V14.00,2013-02-15 03:41:00,
2013-02-14 22:46:00,30.0,28.0,29.99,SE,135,0.0,0.0,92,0.00,,---,0.00,VWS V14.00,2013-02-15 03:46:00,
2013-02-14 22:51:00,30.0,28.0,30.00,SE,135,0.0,0.0,92,0.00,,---,0.00,VWS V14.00,2013-02-15 03:51:00,
2013-02-14 22:56:00,29.8,27.8,30.00,SE,135,0.0,0.0,92,0.00,,---,0.00,VWS V14.00,2013-02-15 03:56:00,
2013-02-14 23:01:00,29.8,28.0,30.00,SE,135,0.0,0.0,93,0.00,,---,0.00,VWS V14.00,2013-02-15 04:01:00,
2013-02-14 23:06:00,29.4,27.6,30.00,SE,135,0.0,0.0,93,0.00,,---,0.00,VWS V14.00,2013-02-15 04:06:00,
2013-02-14 23:11:00,29.4,27.6,30.00,SE,135,0.0,0.0,93,0.00,,---,0.00,VWS V14.00,2013-02-15 04:11:00,
2013-02-14 23:16:00,29.4,27.6,30.00,SE,135,0.0,0.0,93,0.00,,---,0.00,VWS V14.00,2013-02-15 04:16:00,
2013-02-14 23:21:00,29.3,27.5,30.00,SE,135,0.0,0.0,93,0.00,,---,0.00,VWS V14.00,2013-02-15 04:21:00,
2013-02-14 23:26:00,29.1,27.3,30.00,SE,135,0.0,0.0,93,0.00,,---,0.00,VWS V14.00,2013-02-15 04:26:00,
2013-02-14 23:31:00,29.1,27.3,30.00,SE,135,0.0,0.0,93,0.00,,---,0.00,VWS V14.00,2013-02-15 04:31:00,
2013-02-14 23:36:00,28.9,27.1,30.00,SE,135,0.0,0.0,93,0.00,,---,0.00,VWS V14.00,2013-02-15 04:36:00,
2013-02-14 23:41:00,28.7,26.9,30.00,SE,135,0.0,0.0,93,0.00,,---,0.00,VWS V14.00,2013-02-15 04:41:00,
2013-02-14 23:46:00,28.7,26.9,30.00,SE,135,0.0,0.0,93,0.00,,---,0.00,VWS V14.00,2013-02-15 04:46:00,
2013-02-14 23:51:00,28.7,26.9,30.00,SE,135,0.0,0.0,93,0.00,,---,0.00,VWS V14.00,2013-02-15 04:51:00,
2013-02-14 23:56:00,28.5,27.0,30.00,SE,135,0.0,0.0,94,0.00,,---,0.00,VWS V14.00,2013-02-15 04:56:00,